createdAt,value
2017-09-26T00:00:26.661Z,13.27
2017-09-26T00:02:54.159Z,12.20
2017-09-26T00:05:21.657Z,14.30
2017-09-26T00:07:49.184Z,11.70
2017-09-26T00:10:16.677Z,13.30
2017-09-26T00:12:44.204Z,11.47
2017-09-26T00:15:12.456Z,14.30
2017-09-26T00:17:39.985Z,11.60
2017-09-26T00:20:07.484Z,13.70
2017-09-26T00:22:35.121Z,13.80
2017-09-26T00:25:02.614Z,13.30
2017-09-26T00:27:30.116Z,15.90
2017-09-26T00:29:57.678Z,12.90
2017-09-26T00:32:25.165Z,12.50
2017-09-26T00:34:53.456Z,16.43
2017-09-26T00:37:20.961Z,14.20
2017-09-26T00:39:48.488Z,12.83
2017-09-26T00:42:15.992Z,15.93
2017-09-26T00:44:43.539Z,14.60
2017-09-26T00:47:11.044Z,14.37
2017-09-26T00:49:38.920Z,14.17
2017-09-26T00:52:06.422Z,14.20
2017-09-26T00:54:33.917Z,16.30
2017-09-26T00:57:01.446Z,16.77
2017-09-26T00:59:29.712Z,17.50
2017-09-26T01:01:58.149Z,15.00
2017-09-26T01:04:25.649Z,22.93
2017-09-26T01:06:53.187Z,16.73
2017-09-26T01:09:20.744Z,19.67
2017-09-26T01:11:48.400Z,17.20
2017-09-26T01:14:15.892Z,14.50
2017-09-26T01:16:43.410Z,15.93
2017-09-26T01:19:11.652Z,15.80
2017-09-26T01:21:39.149Z,19.93
2017-09-26T01:24:06.677Z,14.80
2017-09-26T01:26:34.942Z,17.13
2017-09-26T01:29:03.264Z,18.23
2017-09-26T01:31:30.809Z,14.13
2017-09-26T01:33:58.449Z,20.67
2017-09-26T01:36:25.936Z,16.00
2017-09-26T01:38:54.205Z,16.23
2017-09-26T01:41:21.738Z,20.07
2017-09-26T01:43:49.997Z,16.27
2017-09-26T01:46:17.521Z,12.77
2017-09-26T01:48:45.016Z,16.63
2017-09-26T01:51:12.541Z,16.87
2017-09-26T01:53:40.808Z,15.90
2017-09-26T01:56:23.221Z,13.77
2017-09-26T01:58:52.197Z,16.97
2017-09-26T02:01:19.721Z,15.60
2017-09-26T02:03:47.249Z,15.83
2017-09-26T02:06:15.513Z,14.97
2017-09-26T02:08:43.802Z,19.23
2017-09-26T02:11:11.296Z,13.27
2017-09-26T02:13:38.821Z,19.20
2017-09-26T02:16:06.317Z,14.10
2017-09-26T02:18:34.611Z,15.87
2017-09-26T02:21:02.107Z,18.20
2017-09-26T02:23:30.397Z,18.23
2017-09-26T02:25:57.899Z,17.13
2017-09-26T02:28:25.599Z,11.53
2017-09-26T02:30:53.092Z,20.07
2017-09-26T02:33:20.593Z,12.73
2017-09-26T02:35:48.130Z,18.27
2017-09-26T02:38:15.627Z,15.50
2017-09-26T02:40:43.157Z,21.47
2017-09-26T02:43:10.658Z,14.83
2017-09-26T02:45:38.184Z,22.67
2017-09-26T02:48:05.681Z,19.07
2017-09-26T02:50:33.213Z,13.13
2017-09-26T02:53:00.714Z,16.77
2017-09-26T02:55:28.481Z,18.63
2017-09-26T02:57:55.978Z,21.20
2017-09-26T03:00:23.474Z,15.23
2017-09-26T03:02:50.997Z,14.60
2017-09-26T03:05:18.496Z,14.90
2017-09-26T03:07:46.024Z,23.50
2017-09-26T03:10:13.529Z,14.90
2017-09-26T03:12:41.105Z,20.33
2017-09-26T03:15:08.597Z,15.93
2017-09-26T03:17:36.893Z,15.70
2017-09-26T03:20:04.396Z,15.30
2017-09-26T03:22:31.896Z,18.17
2017-09-26T03:24:59.420Z,14.83
2017-09-26T03:27:26.932Z,17.90
2017-09-26T03:29:55.230Z,17.53
2017-09-26T03:32:22.745Z,16.23
2017-09-26T03:34:51.045Z,17.60
2017-09-26T03:37:18.569Z,23.57
2017-09-26T03:39:46.093Z,25.47
2017-09-26T03:42:14.361Z,16.27
2017-09-26T03:44:42.537Z,16.80
2017-09-26T03:47:10.032Z,17.93
2017-09-26T03:49:37.521Z,19.47
2017-09-26T03:52:05.048Z,17.60
2017-09-26T03:54:33.307Z,19.70
2017-09-26T03:57:01.600Z,21.80
2017-09-26T03:59:29.089Z,23.40
2017-09-26T04:01:56.724Z,24.43
2017-09-26T04:04:24.980Z,20.00
2017-09-26T04:06:52.480Z,27.30
2017-09-26T04:09:20.013Z,24.23
2017-09-26T04:11:48.281Z,22.47
2017-09-26T04:14:15.813Z,20.43
2017-09-26T04:16:43.314Z,18.33
2017-09-26T04:19:10.839Z,21.07
2017-09-26T04:21:38.329Z,21.50
2017-09-26T04:24:07.112Z,20.90
2017-09-26T04:26:35.473Z,21.97
2017-09-26T04:29:03.020Z,22.50
2017-09-26T04:31:31.327Z,21.53
2017-09-26T04:33:58.835Z,22.10
2017-09-26T04:36:26.380Z,25.20
2017-09-26T04:38:53.892Z,29.83
2017-09-26T04:41:21.398Z,25.83
2017-09-26T04:43:48.947Z,20.27
2017-09-26T04:46:16.462Z,25.50
2017-09-26T04:48:44.704Z,27.10
2017-09-26T04:51:12.973Z,25.70
2017-09-26T04:53:40.475Z,20.23
2017-09-26T04:56:08.010Z,22.70
2017-09-26T04:58:35.505Z,21.67
2017-09-26T05:01:03.923Z,29.23
2017-09-26T05:03:31.430Z,27.00
2017-09-26T05:05:58.943Z,24.10
2017-09-26T05:08:27.272Z,27.37
2017-09-26T05:10:54.766Z,26.03
2017-09-26T05:13:23.112Z,24.67
2017-09-26T05:15:51.386Z,27.60
2017-09-26T05:18:19.690Z,27.30
2017-09-26T05:20:47.182Z,29.80
2017-09-26T05:23:14.717Z,31.97
2017-09-26T05:25:42.213Z,34.40
2017-09-26T05:28:09.740Z,27.03
2017-09-26T05:30:37.242Z,28.70
2017-09-26T05:33:04.804Z,29.03
2017-09-26T05:35:32.308Z,26.20
2017-09-26T05:37:59.954Z,34.50
2017-09-26T05:40:27.456Z,30.90
2017-09-26T05:42:54.965Z,26.00
2017-09-26T05:45:22.508Z,29.47
2017-09-26T05:47:50.793Z,28.30
2017-09-26T05:50:18.366Z,29.57
2017-09-26T05:52:45.862Z,23.83
2017-09-26T05:55:13.385Z,26.83
2017-09-26T05:57:40.881Z,29.53
2017-09-26T06:00:08.410Z,26.73
2017-09-26T06:02:35.904Z,25.70
2017-09-26T06:05:03.434Z,27.63
2017-09-26T06:07:30.925Z,24.90
2017-09-26T06:09:58.448Z,26.73
2017-09-26T06:12:26.713Z,29.70
2017-09-26T06:14:55.208Z,31.50
2017-09-26T06:17:22.709Z,24.80
2017-09-26T06:19:50.245Z,32.50
2017-09-26T06:22:17.768Z,28.03
2017-09-26T06:24:45.261Z,32.83
2017-09-26T06:27:13.554Z,26.63
2017-09-26T06:29:41.144Z,30.10
2017-09-26T06:32:08.660Z,30.13
2017-09-26T06:34:36.148Z,30.93
2017-09-26T06:37:04.813Z,25.63
2017-09-26T06:39:32.307Z,25.13
2017-09-26T06:41:59.832Z,29.23
2017-09-26T06:44:27.369Z,24.13
2017-09-26T06:46:54.865Z,27.37
2017-09-26T06:49:22.401Z,23.70
2017-09-26T06:51:49.900Z,27.33
2017-09-26T06:54:17.446Z,28.27
2017-09-26T06:56:44.949Z,23.50
2017-09-26T06:59:12.476Z,26.60
2017-09-26T07:01:39.993Z,27.93
2017-09-26T07:04:08.288Z,23.67
2017-09-26T07:06:35.785Z,23.20
2017-09-26T07:09:03.417Z,27.10
2017-09-26T07:11:30.925Z,26.17
2017-09-26T07:16:32.429Z,24.00
2017-09-26T07:19:00.689Z,30.43
2017-09-26T07:21:28.977Z,27.27
2017-09-26T07:23:56.471Z,24.00
2017-09-26T07:26:23.997Z,21.50
2017-09-26T07:28:51.504Z,26.40
2017-09-26T07:31:19.141Z,23.43
2017-09-26T07:33:46.636Z,23.90
2017-09-26T07:36:14.140Z,24.60
2017-09-26T07:38:41.677Z,25.50
2017-09-26T07:41:09.176Z,22.10
2017-09-26T07:43:37.485Z,19.40
2017-09-26T07:46:04.989Z,22.40
2017-09-26T07:48:32.624Z,18.93
2017-09-26T07:51:00.922Z,24.17
2017-09-26T07:53:28.413Z,19.83
2017-09-26T07:55:55.942Z,16.03
2017-09-26T07:58:23.450Z,16.23
2017-09-26T08:00:51.302Z,17.87
2017-09-26T08:03:19.053Z,23.57
2017-09-26T08:05:46.917Z,16.10
2017-09-26T08:08:14.694Z,17.90
2017-09-26T08:10:42.219Z,17.70
2017-09-26T08:13:09.721Z,18.80
2017-09-26T08:15:37.585Z,16.97
2017-09-26T08:18:05.089Z,23.03
2017-09-26T08:20:33.144Z,19.53
2017-09-26T08:23:00.678Z,17.60
2017-09-26T08:25:28.186Z,15.20
2017-09-26T08:27:55.721Z,17.67
2017-09-26T08:30:23.222Z,13.63
2017-09-26T08:32:50.753Z,17.23
2017-09-26T08:35:18.252Z,16.87
2017-09-26T08:37:45.787Z,18.10
2017-09-26T08:40:13.289Z,18.13
2017-09-26T08:42:40.825Z,15.20
2017-09-26T08:45:08.321Z,14.93
2017-09-26T08:47:36.000Z,20.30
2017-09-26T08:50:03.498Z,13.07
2017-09-26T08:52:30.997Z,19.90
2017-09-26T08:54:58.533Z,12.40
2017-09-26T08:57:26.233Z,13.63
2017-09-26T08:59:53.764Z,17.80
2017-09-26T09:02:22.028Z,14.97
2017-09-26T09:04:50.629Z,17.23
2017-09-26T09:07:18.120Z,17.47
2017-09-26T09:09:45.628Z,16.30
2017-09-26T09:12:13.174Z,18.60
2017-09-26T09:14:40.670Z,16.40
2017-09-26T09:17:08.969Z,16.87
2017-09-26T09:19:36.457Z,16.40
2017-09-26T09:22:03.998Z,17.30
2017-09-26T09:24:31.501Z,18.83
2017-09-26T09:26:59.034Z,18.63
2017-09-26T09:29:26.573Z,16.10
2017-09-26T09:31:54.215Z,15.93
2017-09-26T09:34:21.713Z,15.80
2017-09-26T09:36:49.485Z,15.33
2017-09-26T09:39:17.017Z,14.43
2017-09-26T09:41:44.516Z,15.23
2017-09-26T09:44:12.154Z,14.10
2017-09-26T09:46:39.668Z,13.70
2017-09-26T09:49:07.937Z,18.80
2017-09-26T09:51:35.467Z,15.93
2017-09-26T09:54:02.963Z,14.30
2017-09-26T09:56:30.501Z,17.53
2017-09-26T09:58:58.050Z,15.03
2017-09-26T10:01:26.350Z,15.40
2017-09-26T10:03:53.850Z,14.40
2017-09-26T10:06:21.379Z,17.67
2017-09-26T10:08:48.946Z,13.83
2017-09-26T10:11:16.469Z,11.23
2017-09-26T10:13:43.964Z,10.43
2017-09-26T10:16:11.595Z,17.13
2017-09-26T10:18:39.089Z,12.53
2017-09-26T10:21:06.572Z,13.93
2017-09-26T10:23:34.096Z,8.40
2017-09-26T10:26:01.598Z,12.23
2017-09-26T10:28:30.117Z,12.40
2017-09-26T10:30:57.613Z,9.30
2017-09-26T10:33:25.917Z,11.33
2017-09-26T10:35:53.417Z,10.40
2017-09-26T10:38:20.916Z,7.00
2017-09-26T10:40:48.456Z,9.17
2017-09-26T10:43:15.948Z,6.20
2017-09-26T10:45:44.241Z,7.60
2017-09-26T10:48:11.741Z,9.40
2017-09-26T10:50:39.649Z,7.03
2017-09-26T10:53:07.138Z,7.23
2017-09-26T10:55:34.624Z,9.00
2017-09-26T10:58:02.147Z,8.80
2017-09-26T11:00:30.413Z,8.17
2017-09-26T11:02:58.065Z,7.57
2017-09-26T11:05:25.567Z,7.40
2017-09-26T11:07:53.057Z,7.60
2017-09-26T11:10:20.596Z,8.30
2017-09-26T11:12:48.088Z,7.40
2017-09-26T11:15:15.611Z,7.20
2017-09-26T11:17:43.100Z,7.60
2017-09-26T11:20:11.437Z,7.33
2017-09-26T11:22:38.925Z,7.43
2017-09-26T11:25:06.474Z,7.63
2017-09-26T11:27:33.961Z,7.37
2017-09-26T11:30:01.844Z,7.00
2017-09-26T11:32:29.364Z,10.00
2017-09-26T11:34:56.865Z,7.00
2017-09-26T11:37:24.386Z,6.47
2017-09-26T11:39:52.653Z,6.37
2017-09-26T11:42:20.982Z,7.83
2017-09-26T11:44:48.481Z,7.50
2017-09-26T11:47:16.012Z,7.17
2017-09-26T11:49:43.501Z,6.57
2017-09-26T11:52:11.132Z,6.47
2017-09-26T11:54:38.620Z,11.00
2017-09-26T11:57:06.119Z,6.67
2017-09-26T11:59:33.648Z,6.13
2017-09-26T12:02:01.137Z,9.50
2017-09-26T12:04:28.665Z,10.37
2017-09-26T12:06:56.161Z,8.03
2017-09-26T12:09:23.682Z,8.10
2017-09-26T12:11:51.941Z,8.67
2017-09-26T12:14:19.555Z,9.33
2017-09-26T12:16:47.049Z,8.70
2017-09-26T12:19:15.337Z,10.97
2017-09-26T12:21:42.837Z,9.97
2017-09-26T12:24:10.729Z,10.40
2017-09-26T12:26:38.222Z,9.77
2017-09-26T12:29:05.761Z,14.43
2017-09-26T12:31:33.297Z,9.93
2017-09-26T12:34:00.787Z,9.43
2017-09-26T12:36:29.073Z,13.63
2017-09-26T12:38:56.572Z,10.20
2017-09-26T12:41:24.913Z,9.73
2017-09-26T12:43:52.404Z,8.50
2017-09-26T12:46:20.113Z,10.90
2017-09-26T12:48:47.600Z,10.93
2017-09-26T12:51:15.095Z,10.47
2017-09-26T12:53:42.610Z,8.03
2017-09-26T12:56:10.116Z,10.40
2017-09-26T12:58:38.410Z,12.40
2017-09-26T13:01:05.917Z,16.93
2017-09-26T13:03:34.216Z,11.87
2017-09-26T13:06:01.731Z,9.23
2017-09-26T13:08:29.252Z,7.90
2017-09-26T13:10:56.787Z,10.43
2017-09-26T13:13:24.413Z,9.50
2017-09-26T13:15:51.902Z,8.33
2017-09-26T13:18:19.410Z,14.00
2017-09-26T13:20:46.944Z,10.43
2017-09-26T13:23:14.437Z,7.23
2017-09-26T13:25:42.724Z,8.93
2017-09-26T13:28:10.261Z,11.50
2017-09-26T13:30:37.786Z,8.63
2017-09-26T13:33:05.289Z,9.07
2017-09-26T13:35:32.817Z,7.27
2017-09-26T13:38:00.305Z,7.27
2017-09-26T13:40:28.589Z,7.40
2017-09-26T13:42:56.081Z,8.70
2017-09-26T13:45:24.476Z,7.33
2017-09-26T13:47:52.733Z,8.87
2017-09-26T13:50:21.125Z,7.00
2017-09-26T13:52:48.624Z,7.70
2017-09-26T13:55:16.116Z,6.57
2017-09-26T13:57:43.649Z,10.80
2017-09-26T14:00:11.142Z,7.10
2017-09-26T14:02:38.665Z,10.07
2017-09-26T14:05:06.165Z,8.23
2017-09-26T14:07:33.983Z,6.13
2017-09-26T14:10:01.480Z,5.90
2017-09-26T14:12:28.980Z,5.37
2017-09-26T14:14:56.504Z,7.57
2017-09-26T14:17:23.993Z,9.03
2017-09-26T14:19:52.308Z,8.80
2017-09-26T14:22:19.792Z,7.70
2017-09-26T14:24:48.080Z,9.00
2017-09-26T14:27:15.577Z,7.10
2017-09-26T14:29:43.418Z,8.27
2017-09-26T14:32:10.910Z,6.73
2017-09-26T14:34:38.430Z,13.30
2017-09-26T14:37:06.717Z,7.80
2017-09-26T14:39:34.213Z,7.80
2017-09-26T14:42:06.781Z,9.50
2017-09-26T14:44:34.272Z,13.80
2017-09-26T14:47:01.949Z,6.87
2017-09-26T14:49:29.436Z,13.60
2017-09-26T14:51:57.700Z,10.27
2017-09-26T14:54:25.997Z,8.43
2017-09-26T14:56:53.480Z,6.40
2017-09-26T14:59:21.010Z,7.80
2017-09-26T15:01:48.522Z,11.47
2017-09-26T15:04:16.908Z,7.60
2017-09-26T15:06:44.423Z,10.23
2017-09-26T15:09:11.949Z,9.27
2017-09-26T15:11:40.225Z,11.03
2017-09-26T15:14:07.753Z,9.80
2017-09-26T15:16:36.020Z,10.27
2017-09-26T15:19:03.544Z,8.73
2017-09-26T15:21:31.837Z,13.55
2017-09-26T15:23:59.473Z,9.53
2017-09-26T15:26:26.968Z,7.43
2017-09-26T15:28:54.512Z,8.83
2017-09-26T15:31:22.045Z,11.00
2017-09-26T15:33:49.541Z,7.80
2017-09-26T15:36:17.068Z,10.10
2017-09-26T15:38:44.561Z,9.10
2017-09-26T15:41:12.082Z,9.97
2017-09-26T15:43:39.565Z,9.07
2017-09-26T15:48:41.025Z,13.23
2017-09-26T15:51:08.720Z,7.03
2017-09-26T15:53:36.205Z,7.70
2017-09-26T15:56:03.693Z,6.43
2017-09-26T15:58:31.277Z,6.60
2017-09-26T16:00:58.766Z,11.13
2017-09-26T16:03:26.290Z,10.13
2017-09-26T16:05:53.795Z,5.97
2017-09-26T16:08:21.314Z,5.97
2017-09-26T16:10:48.801Z,9.87
2017-09-26T16:13:16.721Z,8.90
2017-09-26T16:15:44.225Z,6.30
2017-09-26T16:18:11.717Z,7.00
2017-09-26T16:20:39.242Z,6.90
2017-09-26T16:23:06.754Z,9.43
2017-09-26T16:25:34.281Z,7.27
2017-09-26T16:28:01.804Z,6.00
2017-09-26T16:30:29.391Z,8.83
2017-09-26T16:32:56.978Z,21.83
2017-09-26T16:35:24.754Z,12.90
2017-09-26T16:37:52.262Z,11.23
2017-09-26T16:40:19.765Z,9.80
2017-09-26T16:42:47.626Z,10.03
2017-09-26T16:45:15.133Z,7.43
2017-09-26T16:47:43.899Z,9.87
2017-09-26T16:50:11.396Z,14.63
2017-09-26T16:52:38.941Z,16.83
2017-09-26T16:55:06.433Z,12.00
2017-09-26T16:57:34.776Z,10.30
2017-09-26T17:00:02.265Z,10.10
2017-09-26T17:02:29.966Z,14.53
2017-09-26T17:04:58.277Z,21.27
2017-09-26T17:07:25.771Z,9.90
2017-09-26T17:09:53.298Z,10.13
2017-09-26T17:12:20.904Z,12.80
2017-09-26T17:14:48.429Z,18.53
2017-09-26T17:17:15.933Z,12.77
2017-09-26T17:19:43.457Z,10.30
2017-09-26T17:22:11.717Z,12.70
2017-09-26T17:24:40.010Z,11.40
2017-09-26T17:27:07.515Z,12.20
2017-09-26T17:29:35.148Z,12.27
2017-09-26T17:32:02.645Z,12.67
2017-09-26T17:34:30.177Z,10.87
2017-09-26T17:36:57.696Z,12.50
2017-09-26T17:39:25.957Z,14.90
2017-09-26T17:41:53.486Z,14.60
2017-09-26T17:44:21.005Z,20.87
2017-09-26T17:46:48.545Z,23.80
2017-09-26T17:49:16.056Z,24.90
2017-09-26T17:51:43.600Z,21.33
2017-09-26T17:54:11.890Z,15.93
2017-09-26T17:56:39.543Z,21.27
2017-09-26T17:59:07.049Z,16.13
2017-09-26T18:01:34.565Z,20.03
2017-09-26T18:04:02.878Z,18.70
2017-09-26T18:06:30.368Z,16.07
2017-09-26T18:08:57.945Z,14.30
2017-09-26T18:11:25.433Z,17.40
2017-09-26T18:13:53.301Z,19.97
2017-09-26T18:16:20.789Z,16.60
2017-09-26T18:18:48.748Z,18.20
2017-09-26T18:21:17.028Z,17.10
2017-09-26T18:23:44.526Z,14.43
2017-09-26T18:26:12.054Z,16.17
2017-09-26T18:28:40.331Z,12.70
2017-09-26T18:31:07.865Z,16.77
2017-09-26T18:33:35.366Z,14.57
2017-09-26T18:36:02.896Z,12.17
2017-09-26T18:38:30.407Z,14.67
2017-09-26T18:40:58.084Z,15.37
2017-09-26T18:43:25.625Z,8.27
2017-09-26T18:45:53.126Z,8.70
2017-09-26T18:48:21.906Z,9.10
2017-09-26T18:50:50.184Z,8.20
2017-09-26T18:53:17.718Z,6.23
2017-09-26T18:55:45.229Z,8.43
2017-09-26T18:58:12.844Z,8.23
2017-09-26T19:00:40.338Z,10.20
2017-09-26T19:03:08.637Z,12.63
2017-09-26T19:05:36.849Z,6.47
2017-09-26T19:08:04.501Z,10.47
2017-09-26T19:10:32.763Z,6.17
2017-09-26T19:13:01.017Z,7.53
2017-09-26T19:15:28.550Z,9.00
2017-09-26T19:17:56.136Z,8.80
2017-09-26T19:20:23.684Z,9.00
2017-09-26T19:22:51.185Z,9.47
2017-09-26T19:25:18.890Z,6.50
2017-09-26T19:27:46.389Z,7.37
2017-09-26T19:30:13.936Z,6.70
2017-09-26T19:32:41.433Z,8.57
2017-09-26T19:35:09.081Z,8.77
2017-09-26T19:37:36.578Z,9.33
2017-09-26T19:40:04.993Z,7.40
2017-09-26T19:42:32.621Z,11.50
2017-09-26T19:45:00.118Z,8.70
2017-09-26T19:47:28.528Z,11.57
2017-09-26T19:49:56.026Z,11.50
2017-09-26T19:52:24.441Z,11.73
2017-09-26T19:54:52.035Z,12.77
2017-09-26T19:57:19.542Z,10.50
2017-09-26T19:59:47.077Z,12.10
2017-09-26T20:02:14.645Z,14.33
2017-09-26T20:04:43.061Z,12.90
2017-09-26T20:07:10.558Z,20.47
2017-09-26T20:09:38.116Z,17.17
2017-09-26T20:12:06.381Z,18.43
2017-09-26T20:14:33.923Z,19.80
2017-09-26T20:17:01.479Z,15.97
2017-09-26T20:19:30.273Z,15.80
2017-09-26T20:21:58.389Z,15.00
2017-09-26T20:24:26.667Z,13.73
2017-09-26T20:26:55.026Z,21.20
2017-09-26T20:29:23.306Z,14.47
2017-09-26T20:31:50.848Z,20.30
2017-09-26T20:34:18.366Z,16.30
2017-09-26T20:36:46.674Z,20.30
2017-09-26T20:39:14.168Z,19.10
2017-09-26T20:41:41.725Z,19.60
2017-09-26T20:44:09.242Z,26.07
2017-09-26T20:46:37.785Z,24.57
2017-09-26T20:49:05.281Z,26.67
2017-09-26T20:51:32.819Z,28.53
2017-09-26T20:54:01.118Z,44.30
2017-09-26T20:56:28.626Z,27.47
2017-09-26T20:58:56.179Z,34.17
2017-09-26T21:01:24.441Z,29.87
2017-09-26T21:03:52.761Z,24.50
2017-09-26T21:06:20.265Z,19.97
2017-09-26T21:08:47.815Z,26.07
2017-09-26T21:11:15.411Z,26.90
2017-09-26T21:13:43.194Z,29.97
2017-09-26T21:16:10.714Z,37.77
2017-09-26T21:18:38.979Z,31.70
2017-09-26T21:21:06.517Z,33.00
2017-09-26T21:23:34.057Z,36.00
2017-09-26T21:26:01.596Z,33.80
2017-09-26T21:28:29.090Z,29.10
2017-09-26T21:30:56.778Z,34.00
2017-09-26T21:33:24.497Z,29.00
2017-09-26T21:35:51.995Z,28.47
2017-09-26T21:38:20.397Z,29.87
2017-09-26T21:40:47.885Z,31.67
2017-09-26T21:43:15.413Z,31.43
2017-09-26T21:45:43.032Z,28.07
2017-09-26T21:48:10.780Z,31.43
2017-09-26T21:50:38.297Z,24.37
2017-09-26T21:53:06.553Z,20.27
2017-09-26T21:55:34.844Z,26.33
2017-09-26T21:58:03.151Z,24.20
2017-09-26T22:00:30.693Z,24.50
2017-09-26T22:02:58.181Z,25.80
2017-09-26T22:05:25.704Z,25.37
2017-09-26T22:07:53.970Z,24.50
2017-09-26T22:10:22.377Z,22.27
2017-09-26T22:12:50.741Z,18.47
2017-09-26T22:15:18.232Z,21.20
2017-09-26T22:17:45.771Z,17.83
2017-09-26T22:20:14.050Z,14.87
2017-09-26T22:22:41.603Z,15.47
2017-09-26T22:25:09.094Z,14.43
2017-09-26T22:27:36.618Z,16.23
2017-09-26T22:30:04.114Z,15.17
2017-09-26T22:32:32.709Z,16.13
2017-09-26T22:35:00.233Z,13.60
2017-09-26T22:37:29.345Z,17.20
2017-09-26T22:39:56.869Z,16.23
2017-09-26T22:42:24.375Z,13.33
2017-09-26T22:44:51.900Z,12.00
2017-09-26T22:47:19.397Z,13.90
2017-09-26T22:49:47.687Z,14.97
2017-09-26T22:52:15.180Z,14.50
2017-09-26T22:54:43.790Z,15.97
2017-09-26T22:57:11.303Z,19.80
2017-09-26T22:59:39.568Z,22.07
2017-09-26T23:02:07.176Z,16.07
2017-09-26T23:04:34.682Z,17.40
2017-09-26T23:07:02.324Z,15.60
2017-09-26T23:09:29.817Z,17.10
2017-09-26T23:11:57.353Z,20.10
2017-09-26T23:14:24.861Z,16.93
2017-09-26T23:16:52.393Z,16.10
2017-09-26T23:19:21.702Z,16.90
2017-09-26T23:21:49.346Z,19.57
2017-09-26T23:24:16.918Z,17.90
2017-09-26T23:26:44.441Z,21.63
2017-09-26T23:29:12.869Z,22.47
2017-09-26T23:31:40.364Z,20.97
2017-09-26T23:34:07.896Z,20.17
2017-09-26T23:36:35.393Z,24.20
2017-09-26T23:39:03.691Z,20.07
2017-09-26T23:41:31.199Z,17.97
2017-09-26T23:43:59.500Z,20.97
2017-09-26T23:46:26.988Z,17.93
2017-09-26T23:48:54.629Z,18.97
2017-09-26T23:51:22.124Z,20.50
2017-09-26T23:53:49.620Z,23.47
2017-09-26T23:56:17.160Z,21.93
2017-09-26T23:58:44.665Z,29.20
